Great Falls, MT (59401)

11:43 PM MST on February 13, 2016 (GMT -0700)
Great Falls South SIde | | Change Station
CLOSE
Current Station
Personal Weather Station
Location: Great Falls, MT
Elevation: 3399 ft
Nearby Weather Stations

Elev 3399 ft 47.50 °N, 111.27 °W | Updated 4 seconds ago

Mostly Cloudy
Mostly Cloudy
41.0 °F
Feels Like 41 °F
N
3.0
Wind Variable Wind from WSW
Gusts 9.0 mph

Today
High -- | Low -- °F
--% Chance of Precip.
Yesterday
High -- | Low -- °F
Precip. -- in
Pressure 29.97 in
Visibility 10.0 miles
Clouds Mostly Cloudy 12000 ft
Windchill 41 °F
Dew Point 23 °F
Humidity 49%
Rainfall 0.00 in
Snow Depth Not available.
7:34 AM 5:44 PM
Waxing Crescent, 38% visible
METAR KGTF 140553Z 23015KT 10SM BKN120 04/M06 A2992 RMK AO2 SLP149 T00391056 10067 20022 58021
Pressure 29.97 in
Visibility 10.0 miles
Clouds Mostly Cloudy 12000 ft
Windchill 41 °F
Dew Point 23 °F
Humidity 49%
Rainfall 0.00 in
Snow Depth Not available.
7:34 AM 5:44 PM
Waxing Crescent, 38% visible
METAR KGTF 140553Z 23015KT 10SM BKN120 04/M06 A2992 RMK AO2 SLP149 T00391056 10067 20022 58021

10-Day Weather Forecast

Almanac

Astronomy

Feb. 13, 2016 Rise Set
Actual Time
Civil Twilight
Nautical Twilight
Astronomical Twilight
Moon
Length of Visible Light
Length of Day
Tomorrow will be .
, % of the Moon is Illuminated

Today's Extremes

State Highs State Lows

Community

WunderPhotos

Upload Photos

1,892,757 photos uploaded!

WunderBlog® & News

Nearby

Air Quality

  Air Quality AQ Index Pollutant
Not available.

Snow Depth

Station Depth Elevation

Earthquake Activity

City Distance Mag. Time & Date
Minimum magnitude displayed is 2.5.

Coastal Water Temperatures

Place Temperature

Stations

Nearby Weather Stations

Station Location Temp. Windchill Dew Point Humidity Wind Precip. Elev Updated Type
                   

Watches & Warnings

There are currently no watches in effect.